Carmel Valley, CA

1:55 AM PST on January 17, 2017 (GMT -0800)
Turtle Hill in Robles del Rio | | Change Station

Elev 354 ft 36.47 °N, 121.73 °W | Updated 20 seconds ago

Clear
Clear
36.7 °F
Feels Like 37 °F
N
0.0
Wind Variable Wind from South

Today
High -- | Low -- °F
--% Chance of Precip.
Yesterday
High -- | Low -- °F
Precip. -- in
Pressure 30.12 in
Visibility 10.0 miles
Clouds Clear
Windchill 37 °F
Dew Point 36 °F
Humidity 98%
Rainfall 0.00 in
Snow Depth Not available.
7:17 AM 5:17 PM
Waning Gibbous, 74% visible
METAR KMRY 170854Z AUTO 08003KT 10SM CLR 04/03 A3008 RMK AO2 SLP199 T00440033 58005
Pressure 30.12 in
Visibility 10.0 miles
Clouds Clear
Windchill 37 °F
Dew Point 36 °F
Humidity 98%
Rainfall 0.00 in
Snow Depth Not available.
7:17 AM 5:17 PM
Waning Gibbous, 74% visible
METAR KMRY 170854Z AUTO 08003KT 10SM CLR 04/03 A3008 RMK AO2 SLP199 T00440033 58005

Get Your Daily Forecast Email!

Thanks for signing up!

Be on the lookout for a verification email in your inbox.

You'll start receiving the daily forecast at 8 AM.

×

10-Day Weather Forecast

Almanac

Astronomy

Jan. 17, 2017 Rise Set
Actual Time
Civil Twilight
Nautical Twilight
Astronomical Twilight
Moon
Length of Visible Light
Length of Day
Tomorrow will be .
, % of the Moon is Illuminated

Today's Extremes

State Highs State Lows

Community

WunderPhotos

Upload Photos

1,962,540 photos uploaded!

WunderBlog® & News

Nearby

Air Quality

  Air Quality AQ Index Pollutant
Not available.

Snow Depth

Station Depth Elevation

Earthquake Activity

City Distance Mag. Time & Date
Minimum magnitude displayed is 2.5.

Coastal Water Temperatures

Place Temperature

Stations

Nearby Weather Stations

Station Location Temp. Windchill Dew Point Humidity Wind Precip. Elev Updated Type
                   

Watches & Warnings

There are currently no watches in effect.